sensor_id;sensor_type;location;lat;lon;timestamp;temperature;humidity
20722;DHT22;10522;52.198;9.890;2024-03-06T00:01:44;4.30;99.90
20722;DHT22;10522;52.198;9.890;2024-03-06T00:04:10;4.30;99.90
20722;DHT22;10522;52.198;9.890;2024-03-06T00:06:35;4.30;99.90
20722;DHT22;10522;52.198;9.890;2024-03-06T00:09:01;4.20;99.90
20722;DHT22;10522;52.198;9.890;2024-03-06T00:11:28;4.20;99.90
20722;DHT22;10522;52.198;9.890;2024-03-06T00:13:54;4.20;99.90
20722;DHT22;10522;52.198;9.890;2024-03-06T00:16:20;4.20;99.90
20722;DHT22;10522;52.198;9.890;2024-03-06T00:18:46;4.30;99.90
20722;DHT22;10522;52.198;9.890;2024-03-06T00:21:12;4.30;99.90
20722;DHT22;10522;52.198;9.890;2024-03-06T00:23:38;4.30;99.90
20722;DHT22;10522;52.198;9.890;2024-03-06T00:26:04;4.20;99.90
20722;DHT22;10522;52.198;9.890;2024-03-06T00:28:30;4.30;99.90
20722;DHT22;10522;52.198;9.890;2024-03-06T00:30:55;4.30;99.90
20722;DHT22;10522;52.198;9.890;2024-03-06T00:33:23;4.30;99.90
20722;DHT22;10522;52.198;9.890;2024-03-06T00:35:49;4.30;99.90
20722;DHT22;10522;52.198;9.890;2024-03-06T00:38:15;4.30;99.90
20722;DHT22;10522;52.198;9.890;2024-03-06T00:40:41;4.30;99.90
20722;DHT22;10522;52.198;9.890;2024-03-06T00:43:07;4.30;99.90
20722;DHT22;10522;52.198;9.890;2024-03-06T00:45:33;4.20;99.90
20722;DHT22;10522;52.198;9.890;2024-03-06T00:47:58;4.30;99.90
20722;DHT22;10522;52.198;9.890;2024-03-06T00:50:24;4.30;99.90
20722;DHT22;10522;52.198;9.890;2024-03-06T00:52:50;4.30;99.90
20722;DHT22;10522;52.198;9.890;2024-03-06T00:55:16;4.30;99.90
20722;DHT22;10522;52.198;9.890;2024-03-06T00:57:41;4.30;99.90
20722;DHT22;10522;52.198;9.890;2024-03-06T01:00:07;4.30;99.90
20722;DHT22;10522;52.198;9.890;2024-03-06T01:02:39;4.30;99.90
20722;DHT22;10522;52.198;9.890;2024-03-06T01:05:06;4.40;99.90
20722;DHT22;10522;52.198;9.890;2024-03-06T01:07:33;4.30;99.90
20722;DHT22;10522;52.198;9.890;2024-03-06T01:10:00;4.30;99.90
20722;DHT22;10522;52.198;9.890;2024-03-06T01:12:27;4.30;99.90
20722;DHT22;10522;52.198;9.890;2024-03-06T01:14:52;4.20;99.90
20722;DHT22;10522;52.198;9.890;2024-03-06T01:17:18;4.30;99.90
20722;DHT22;10522;52.198;9.890;2024-03-06T01:19:44;4.30;99.90
20722;DHT22;10522;52.198;9.890;2024-03-06T01:22:10;4.30;99.90
20722;DHT22;10522;52.198;9.890;2024-03-06T01:24:36;4.30;99.90
20722;DHT22;10522;52.198;9.890;2024-03-06T01:27:02;4.30;99.90
20722;DHT22;10522;52.198;9.890;2024-03-06T01:29:31;4.30;99.90
20722;DHT22;10522;52.198;9.890;2024-03-06T01:31:58;4.30;99.90
20722;DHT22;10522;52.198;9.890;2024-03-06T01:34:24;4.30;99.90
20722;DHT22;10522;52.198;9.890;2024-03-06T01:36:50;4.30;99.90
20722;DHT22;10522;52.198;9.890;2024-03-06T01:39:16;4.30;99.90
20722;DHT22;10522;52.198;9.890;2024-03-06T01:41:49;4.30;99.90
20722;DHT22;10522;52.198;9.890;2024-03-06T01:44:15;4.30;99.90
20722;DHT22;10522;52.198;9.890;2024-03-06T01:46:45;4.30;99.90
20722;DHT22;10522;52.198;9.890;2024-03-06T01:49:13;4.30;99.90
20722;DHT22;10522;52.198;9.890;2024-03-06T01:51:47;4.30;99.90
20722;DHT22;10522;52.198;9.890;2024-03-06T01:54:14;4.30;99.90
20722;DHT22;10522;52.198;9.890;2024-03-06T01:56:45;4.30;99.90
20722;DHT22;10522;52.198;9.890;2024-03-06T01:59:12;4.30;99.90
20722;DHT22;10522;52.198;9.890;2024-03-06T02:01:39;4.40;99.90
20722;DHT22;10522;52.198;9.890;2024-03-06T02:04:06;4.30;99.90
20722;DHT22;10522;52.198;9.890;2024-03-06T02:06:35;4.30;99.90
20722;DHT22;10522;52.198;9.890;2024-03-06T02:09:01;4.40;99.90
20722;DHT22;10522;52.198;9.890;2024-03-06T02:11:28;4.30;99.90
20722;DHT22;10522;52.198;9.890;2024-03-06T02:13:55;4.30;99.90
20722;DHT22;10522;52.198;9.890;2024-03-06T02:16:20;4.20;99.90
20722;DHT22;10522;52.198;9.890;2024-03-06T02:18:56;4.30;99.90
20722;DHT22;10522;52.198;9.890;2024-03-06T02:21:25;4.30;99.90
20722;DHT22;10522;52.198;9.890;2024-03-06T02:23:51;4.30;99.90
20722;DHT22;10522;52.198;9.890;2024-03-06T02:26:21;4.30;99.90
20722;DHT22;10522;52.198;9.890;2024-03-06T02:28:50;4.40;99.90
20722;DHT22;10522;52.198;9.890;2024-03-06T02:31:17;4.30;99.90
20722;DHT22;10522;52.198;9.890;2024-03-06T02:33:47;4.40;99.90
20722;DHT22;10522;52.198;9.890;2024-03-06T02:36:14;4.30;99.90
20722;DHT22;10522;52.198;9.890;2024-03-06T02:38:40;4.30;99.90
20722;DHT22;10522;52.198;9.890;2024-03-06T02:41:06;4.20;99.90
20722;DHT22;10522;52.198;9.890;2024-03-06T02:43:33;4.30;99.90
20722;DHT22;10522;52.198;9.890;2024-03-06T02:45:59;4.30;99.90
20722;DHT22;10522;52.198;9.890;2024-03-06T02:48:25;4.30;99.90
20722;DHT22;10522;52.198;9.890;2024-03-06T02:50:51;4.30;99.90
20722;DHT22;10522;52.198;9.890;2024-03-06T02:53:16;4.30;99.90
20722;DHT22;10522;52.198;9.890;2024-03-06T02:55:42;4.30;99.90
20722;DHT22;10522;52.198;9.890;2024-03-06T02:58:07;4.30;99.90
20722;DHT22;10522;52.198;9.890;2024-03-06T03:00:33;4.30;99.90
20722;DHT22;10522;52.198;9.890;2024-03-06T03:02:59;4.30;99.90
20722;DHT22;10522;52.198;9.890;2024-03-06T03:05:25;4.30;99.90
20722;DHT22;10522;52.198;9.890;2024-03-06T03:07:51;4.40;99.90
20722;DHT22;10522;52.198;9.890;2024-03-06T03:10:16;4.40;99.90
20722;DHT22;10522;52.198;9.890;2024-03-06T03:12:42;4.30;99.90
20722;DHT22;10522;52.198;9.890;2024-03-06T03:15:09;4.30;99.90
20722;DHT22;10522;52.198;9.890;2024-03-06T03:17:35;4.30;99.90
20722;DHT22;10522;52.198;9.890;2024-03-06T03:20:01;4.30;99.90
20722;DHT22;10522;52.198;9.890;2024-03-06T03:22:40;4.30;99.90
20722;DHT22;10522;52.198;9.890;2024-03-06T03:25:11;4.30;99.90
20722;DHT22;10522;52.198;9.890;2024-03-06T03:27:40;4.50;99.90
20722;DHT22;10522;52.198;9.890;2024-03-06T03:30:12;4.30;99.90
20722;DHT22;10522;52.198;9.890;2024-03-06T03:32:38;4.30;99.90
20722;DHT22;10522;52.198;9.890;2024-03-06T03:35:05;4.30;99.90
20722;DHT22;10522;52.198;9.890;2024-03-06T03:37:31;4.30;99.90
20722;DHT22;10522;52.198;9.890;2024-03-06T03:39:57;4.30;99.90
20722;DHT22;10522;52.198;9.890;2024-03-06T03:42:22;4.30;99.90
20722;DHT22;10522;52.198;9.890;2024-03-06T03:44:48;4.30;99.90
20722;DHT22;10522;52.198;9.890;2024-03-06T03:47:13;4.30;99.90
20722;DHT22;10522;52.198;9.890;2024-03-06T03:49:39;4.30;99.90
20722;DHT22;10522;52.198;9.890;2024-03-06T03:52:05;4.30;99.90
20722;DHT22;10522;52.198;9.890;2024-03-06T03:54:30;4.30;99.90
20722;DHT22;10522;52.198;9.890;2024-03-06T03:56:56;4.30;99.90
20722;DHT22;10522;52.198;9.890;2024-03-06T03:59:23;4.30;99.90
20722;DHT22;10522;52.198;9.890;2024-03-06T04:01:49;4.40;99.90
20722;DHT22;10522;52.198;9.890;2024-03-06T04:04:15;4.30;99.90
20722;DHT22;10522;52.198;9.890;2024-03-06T04:06:41;4.30;99.90
20722;DHT22;10522;52.198;9.890;2024-03-06T04:09:06;4.30;99.90
20722;DHT22;10522;52.198;9.890;2024-03-06T04:11:38;4.30;99.90
20722;DHT22;10522;52.198;9.890;2024-03-06T04:14:07;4.30;99.90
20722;DHT22;10522;52.198;9.890;2024-03-06T04:16:33;4.30;99.90
20722;DHT22;10522;52.198;9.890;2024-03-06T04:18:59;4.30;99.90
20722;DHT22;10522;52.198;9.890;2024-03-06T04:21:24;4.30;99.90
20722;DHT22;10522;52.198;9.890;2024-03-06T04:23:50;4.30;99.90
20722;DHT22;10522;52.198;9.890;2024-03-06T04:26:16;4.30;99.90
20722;DHT22;10522;52.198;9.890;2024-03-06T04:28:43;4.30;99.90
20722;DHT22;10522;52.198;9.890;2024-03-06T04:31:09;4.30;99.90
20722;DHT22;10522;52.198;9.890;2024-03-06T04:33:35;4.20;99.90
20722;DHT22;10522;52.198;9.890;2024-03-06T04:36:02;4.30;99.90
20722;DHT22;10522;52.198;9.890;2024-03-06T04:38:28;4.30;99.90
20722;DHT22;10522;52.198;9.890;2024-03-06T04:40:54;4.30;99.90
20722;DHT22;10522;52.198;9.890;2024-03-06T04:43:20;4.30;99.90
20722;DHT22;10522;52.198;9.890;2024-03-06T04:45:46;4.30;99.90
20722;DHT22;10522;52.198;9.890;2024-03-06T04:48:11;4.30;99.90
20722;DHT22;10522;52.198;9.890;2024-03-06T04:50:37;4.30;99.90
20722;DHT22;10522;52.198;9.890;2024-03-06T04:53:03;4.30;99.90
20722;DHT22;10522;52.198;9.890;2024-03-06T04:55:29;4.30;99.90
20722;DHT22;10522;52.198;9.890;2024-03-06T04:57:56;4.30;99.90
20722;DHT22;10522;52.198;9.890;2024-03-06T05:00:22;4.40;99.90
20722;DHT22;10522;52.198;9.890;2024-03-06T05:02:48;4.30;99.90
20722;DHT22;10522;52.198;9.890;2024-03-06T05:05:17;4.40;99.90
20722;DHT22;10522;52.198;9.890;2024-03-06T05:07:43;4.40;99.90
20722;DHT22;10522;52.198;9.890;2024-03-06T05:10:09;4.40;99.90
20722;DHT22;10522;52.198;9.890;2024-03-06T05:12:35;4.30;99.90
20722;DHT22;10522;52.198;9.890;2024-03-06T05:15:00;4.30;99.90
20722;DHT22;10522;52.198;9.890;2024-03-06T05:17:26;4.30;99.90
20722;DHT22;10522;52.198;9.890;2024-03-06T05:19:52;4.30;99.90
20722;DHT22;10522;52.198;9.890;2024-03-06T05:22:20;4.30;99.90
20722;DHT22;10522;52.198;9.890;2024-03-06T05:24:46;4.30;99.90
20722;DHT22;10522;52.198;9.890;2024-03-06T05:27:12;4.30;99.90
20722;DHT22;10522;52.198;9.890;2024-03-06T05:29:42;4.30;99.90
20722;DHT22;10522;52.198;9.890;2024-03-06T05:32:08;4.30;99.90
20722;DHT22;10522;52.198;9.890;2024-03-06T05:34:34;4.30;99.90
20722;DHT22;10522;52.198;9.890;2024-03-06T05:37:00;4.30;99.90
20722;DHT22;10522;52.198;9.890;2024-03-06T05:39:27;4.30;99.90
20722;DHT22;10522;52.198;9.890;2024-03-06T05:41:55;4.30;99.90
20722;DHT22;10522;52.198;9.890;2024-03-06T05:44:21;4.30;99.90
20722;DHT22;10522;52.198;9.890;2024-03-06T05:46:47;4.30;99.90
20722;DHT22;10522;52.198;9.890;2024-03-06T05:49:13;4.30;99.90
20722;DHT22;10522;52.198;9.890;2024-03-06T05:51:39;4.30;99.90
20722;DHT22;10522;52.198;9.890;2024-03-06T05:54:05;4.30;99.90
20722;DHT22;10522;52.198;9.890;2024-03-06T05:56:34;4.30;99.90
20722;DHT22;10522;52.198;9.890;2024-03-06T05:59:00;4.30;99.90
20722;DHT22;10522;52.198;9.890;2024-03-06T06:01:30;4.30;99.90
20722;DHT22;10522;52.198;9.890;2024-03-06T06:03:56;4.30;99.90
20722;DHT22;10522;52.198;9.890;2024-03-06T06:06:22;4.30;99.90
20722;DHT22;10522;52.198;9.890;2024-03-06T06:08:48;4.30;99.90
20722;DHT22;10522;52.198;9.890;2024-03-06T06:11:13;4.30;99.90
20722;DHT22;10522;52.198;9.890;2024-03-06T06:13:39;4.40;99.90
20722;DHT22;10522;52.198;9.890;2024-03-06T06:16:05;4.40;99.90
20722;DHT22;10522;52.198;9.890;2024-03-06T06:18:31;4.40;99.90
20722;DHT22;10522;52.198;9.890;2024-03-06T06:20:58;4.30;99.90
20722;DHT22;10522;52.198;9.890;2024-03-06T06:23:24;4.30;99.90
20722;DHT22;10522;52.198;9.890;2024-03-06T06:25:49;4.40;99.90
20722;DHT22;10522;52.198;9.890;2024-03-06T06:28:15;4.30;99.90
20722;DHT22;10522;52.198;9.890;2024-03-06T06:30:41;4.30;99.90
20722;DHT22;10522;52.198;9.890;2024-03-06T06:33:07;4.40;99.90
20722;DHT22;10522;52.198;9.890;2024-03-06T06:35:33;4.40;99.90
20722;DHT22;10522;52.198;9.890;2024-03-06T06:38:00;4.40;99.90
20722;DHT22;10522;52.198;9.890;2024-03-06T06:40:26;4.40;99.90
20722;DHT22;10522;52.198;9.890;2024-03-06T06:42:53;4.40;99.90
20722;DHT22;10522;52.198;9.890;2024-03-06T06:45:19;4.30;99.90
20722;DHT22;10522;52.198;9.890;2024-03-06T06:47:46;4.30;99.90
20722;DHT22;10522;52.198;9.890;2024-03-06T06:50:12;4.40;99.90
20722;DHT22;10522;52.198;9.890;2024-03-06T06:52:41;4.40;99.90
20722;DHT22;10522;52.198;9.890;2024-03-06T06:55:07;4.40;99.90
20722;DHT22;10522;52.198;9.890;2024-03-06T06:57:37;4.40;99.90
20722;DHT22;10522;52.198;9.890;2024-03-06T07:00:03;4.50;99.90
20722;DHT22;10522;52.198;9.890;2024-03-06T07:02:37;4.50;99.90
20722;DHT22;10522;52.198;9.890;2024-03-06T07:05:04;4.50;99.90
20722;DHT22;10522;52.198;9.890;2024-03-06T07:07:30;4.50;99.90
20722;DHT22;10522;52.198;9.890;2024-03-06T07:09:56;4.50;99.90
20722;DHT22;10522;52.198;9.890;2024-03-06T07:12:21;4.50;99.90
20722;DHT22;10522;52.198;9.890;2024-03-06T07:14:47;4.50;99.90
20722;DHT22;10522;52.198;9.890;2024-03-06T07:17:13;4.60;99.90
20722;DHT22;10522;52.198;9.890;2024-03-06T07:19:38;4.60;99.90
20722;DHT22;10522;52.198;9.890;2024-03-06T07:22:05;4.60;99.90
20722;DHT22;10522;52.198;9.890;2024-03-06T07:24:30;4.60;99.90
20722;DHT22;10522;52.198;9.890;2024-03-06T07:26:56;4.70;99.90
20722;DHT22;10522;52.198;9.890;2024-03-06T07:29:22;4.60;99.90
20722;DHT22;10522;52.198;9.890;2024-03-06T07:31:47;4.70;99.90
20722;DHT22;10522;52.198;9.890;2024-03-06T07:34:13;4.70;99.90
20722;DHT22;10522;52.198;9.890;2024-03-06T07:36:40;4.70;99.90
20722;DHT22;10522;52.198;9.890;2024-03-06T07:39:06;4.70;99.90
20722;DHT22;10522;52.198;9.890;2024-03-06T07:41:32;4.70;99.90
20722;DHT22;10522;52.198;9.890;2024-03-06T07:43:59;4.70;99.90
20722;DHT22;10522;52.198;9.890;2024-03-06T07:46:28;4.70;99.90
20722;DHT22;10522;52.198;9.890;2024-03-06T07:48:53;4.70;99.90
20722;DHT22;10522;52.198;9.890;2024-03-06T07:51:20;4.70;99.90
20722;DHT22;10522;52.198;9.890;2024-03-06T07:53:46;4.70;99.90
20722;DHT22;10522;52.198;9.890;2024-03-06T07:56:11;4.70;99.90
20722;DHT22;10522;52.198;9.890;2024-03-06T07:58:38;4.70;99.90
20722;DHT22;10522;52.198;9.890;2024-03-06T08:01:04;4.80;99.90
20722;DHT22;10522;52.198;9.890;2024-03-06T08:03:29;4.70;99.90
20722;DHT22;10522;52.198;9.890;2024-03-06T08:05:55;4.80;99.90
20722;DHT22;10522;52.198;9.890;2024-03-06T08:08:21;4.70;99.90
20722;DHT22;10522;52.198;9.890;2024-03-06T08:10:47;4.80;99.90
20722;DHT22;10522;52.198;9.890;2024-03-06T08:13:13;4.80;99.90
20722;DHT22;10522;52.198;9.890;2024-03-06T08:15:39;4.80;99.90
20722;DHT22;10522;52.198;9.890;2024-03-06T08:18:05;4.90;99.90
20722;DHT22;10522;52.198;9.890;2024-03-06T08:20:31;4.90;99.90
20722;DHT22;10522;52.198;9.890;2024-03-06T08:22:58;4.80;99.90
20722;DHT22;10522;52.198;9.890;2024-03-06T08:25:23;5.00;99.90
20722;DHT22;10522;52.198;9.890;2024-03-06T08:27:49;4.90;99.90
20722;DHT22;10522;52.198;9.890;2024-03-06T08:30:15;4.90;99.90
20722;DHT22;10522;52.198;9.890;2024-03-06T08:32:41;5.00;99.90
20722;DHT22;10522;52.198;9.890;2024-03-06T08:35:10;5.00;99.90
20722;DHT22;10522;52.198;9.890;2024-03-06T08:37:40;5.00;99.90
20722;DHT22;10522;52.198;9.890;2024-03-06T08:40:07;5.00;99.90
20722;DHT22;10522;52.198;9.890;2024-03-06T08:42:33;5.10;99.90
20722;DHT22;10522;52.198;9.890;2024-03-06T08:44:58;5.10;99.90
20722;DHT22;10522;52.198;9.890;2024-03-06T08:47:24;5.10;99.90
20722;DHT22;10522;52.198;9.890;2024-03-06T08:49:50;5.00;99.90
20722;DHT22;10522;52.198;9.890;2024-03-06T08:52:15;5.10;99.90
20722;DHT22;10522;52.198;9.890;2024-03-06T08:54:41;5.00;99.90
20722;DHT22;10522;52.198;9.890;2024-03-06T08:57:07;5.10;99.90
20722;DHT22;10522;52.198;9.890;2024-03-06T08:59:34;5.20;99.90
20722;DHT22;10522;52.198;9.890;2024-03-06T09:02:15;5.30;99.90
20722;DHT22;10522;52.198;9.890;2024-03-06T09:04:44;5.20;99.90
20722;DHT22;10522;52.198;9.890;2024-03-06T09:07:10;5.30;99.90
20722;DHT22;10522;52.198;9.890;2024-03-06T09:09:36;5.30;99.90
20722;DHT22;10522;52.198;9.890;2024-03-06T09:12:08;5.40;99.90
20722;DHT22;10522;52.198;9.890;2024-03-06T09:14:38;5.40;99.90
20722;DHT22;10522;52.198;9.890;2024-03-06T09:17:04;5.50;99.90
20722;DHT22;10522;52.198;9.890;2024-03-06T09:19:31;5.50;99.90
20722;DHT22;10522;52.198;9.890;2024-03-06T09:21:59;5.50;99.90
20722;DHT22;10522;52.198;9.890;2024-03-06T09:24:25;5.60;99.90
20722;DHT22;10522;52.198;9.890;2024-03-06T09:26:52;5.60;99.90
20722;DHT22;10522;52.198;9.890;2024-03-06T09:29:18;5.70;99.90
20722;DHT22;10522;52.198;9.890;2024-03-06T09:31:44;5.70;99.90
20722;DHT22;10522;52.198;9.890;2024-03-06T09:34:10;5.70;99.90
20722;DHT22;10522;52.198;9.890;2024-03-06T09:36:38;5.80;99.90
20722;DHT22;10522;52.198;9.890;2024-03-06T09:39:04;5.80;99.90
20722;DHT22;10522;52.198;9.890;2024-03-06T09:41:33;5.80;99.90
20722;DHT22;10522;52.198;9.890;2024-03-06T09:44:00;5.80;99.90
20722;DHT22;10522;52.198;9.890;2024-03-06T09:46:28;5.90;99.90
20722;DHT22;10522;52.198;9.890;2024-03-06T09:48:54;6.00;99.90
20722;DHT22;10522;52.198;9.890;2024-03-06T09:51:20;6.00;99.90
20722;DHT22;10522;52.198;9.890;2024-03-06T09:53:46;6.00;99.90
20722;DHT22;10522;52.198;9.890;2024-03-06T09:56:17;6.10;99.90
20722;DHT22;10522;52.198;9.890;2024-03-06T09:58:45;6.20;99.90
20722;DHT22;10522;52.198;9.890;2024-03-06T10:01:15;6.20;99.90
20722;DHT22;10522;52.198;9.890;2024-03-06T10:03:45;6.20;99.90
20722;DHT22;10522;52.198;9.890;2024-03-06T10:06:11;6.30;99.90
20722;DHT22;10522;52.198;9.890;2024-03-06T10:08:41;6.40;99.90
20722;DHT22;10522;52.198;9.890;2024-03-06T10:11:07;6.50;99.90
20722;DHT22;10522;52.198;9.890;2024-03-06T10:13:33;6.60;99.90
20722;DHT22;10522;52.198;9.890;2024-03-06T10:16:05;6.70;99.90
20722;DHT22;10522;52.198;9.890;2024-03-06T10:18:35;6.80;99.90
20722;DHT22;10522;52.198;9.890;2024-03-06T10:21:01;6.80;99.90
20722;DHT22;10522;52.198;9.890;2024-03-06T10:23:27;6.90;99.90
20722;DHT22;10522;52.198;9.890;2024-03-06T10:25:55;7.00;99.90
20722;DHT22;10522;52.198;9.890;2024-03-06T10:28:22;7.00;99.90
20722;DHT22;10522;52.198;9.890;2024-03-06T10:30:48;7.20;99.90
20722;DHT22;10522;52.198;9.890;2024-03-06T10:33:15;7.30;99.90
20722;DHT22;10522;52.198;9.890;2024-03-06T10:35:45;7.40;99.90
20722;DHT22;10522;52.198;9.890;2024-03-06T10:38:12;7.30;99.90
20722;DHT22;10522;52.198;9.890;2024-03-06T10:40:39;7.30;99.90
20722;DHT22;10522;52.198;9.890;2024-03-06T10:43:07;7.50;99.90
20722;DHT22;10522;52.198;9.890;2024-03-06T10:48:06;7.70;99.90
20722;DHT22;10522;52.198;9.890;2024-03-06T10:50:32;7.70;99.90
20722;DHT22;10522;52.198;9.890;2024-03-06T10:52:59;7.90;99.90
20722;DHT22;10522;52.198;9.890;2024-03-06T10:55:28;7.80;99.90
20722;DHT22;10522;52.198;9.890;2024-03-06T10:57:56;7.80;99.90
20722;DHT22;10522;52.198;9.890;2024-03-06T11:00:25;8.00;99.90
20722;DHT22;10522;52.198;9.890;2024-03-06T11:02:55;7.80;99.90
20722;DHT22;10522;52.198;9.890;2024-03-06T11:05:21;7.70;99.90
20722;DHT22;10522;52.198;9.890;2024-03-06T11:07:47;7.70;99.90
20722;DHT22;10522;52.198;9.890;2024-03-06T11:10:12;7.70;99.90
20722;DHT22;10522;52.198;9.890;2024-03-06T11:12:42;7.80;99.90
20722;DHT22;10522;52.198;9.890;2024-03-06T11:17:39;8.00;99.90
20722;DHT22;10522;52.198;9.890;2024-03-06T11:33:19;8.10;99.90
20722;DHT22;10522;52.198;9.890;2024-03-06T11:39:04;8.10;99.90
20722;DHT22;10522;52.198;9.890;2024-03-06T11:44:02;8.10;99.90
20722;DHT22;10522;52.198;9.890;2024-03-06T11:46:48;8.20;99.90
20722;DHT22;10522;52.198;9.890;2024-03-06T11:49:21;8.30;99.90
20722;DHT22;10522;52.198;9.890;2024-03-06T11:51:50;8.20;99.90
20722;DHT22;10522;52.198;9.890;2024-03-06T11:54:16;8.20;99.90
20722;DHT22;10522;52.198;9.890;2024-03-06T11:56:48;8.30;99.90
20722;DHT22;10522;52.198;9.890;2024-03-06T11:59:15;8.40;99.90
20722;DHT22;10522;52.198;9.890;2024-03-06T12:01:42;8.40;99.90
20722;DHT22;10522;52.198;9.890;2024-03-06T12:04:07;8.40;99.90
20722;DHT22;10522;52.198;9.890;2024-03-06T12:06:33;8.50;99.90
20722;DHT22;10522;52.198;9.890;2024-03-06T12:08:59;8.50;99.90
20722;DHT22;10522;52.198;9.890;2024-03-06T12:11:25;8.60;99.90
20722;DHT22;10522;52.198;9.890;2024-03-06T12:13:51;8.60;99.90
20722;DHT22;10522;52.198;9.890;2024-03-06T12:16:17;8.50;99.90
20722;DHT22;10522;52.198;9.890;2024-03-06T12:18:43;8.50;99.90
20722;DHT22;10522;52.198;9.890;2024-03-06T12:21:12;8.50;99.90
20722;DHT22;10522;52.198;9.890;2024-03-06T12:23:41;8.60;99.90
20722;DHT22;10522;52.198;9.890;2024-03-06T12:26:08;8.60;99.90
20722;DHT22;10522;52.198;9.890;2024-03-06T12:28:36;8.60;99.90
20722;DHT22;10522;52.198;9.890;2024-03-06T12:31:03;8.50;99.90
20722;DHT22;10522;52.198;9.890;2024-03-06T12:33:29;8.70;99.90
20722;DHT22;10522;52.198;9.890;2024-03-06T12:38:31;8.80;99.90
20722;DHT22;10522;52.198;9.890;2024-03-06T12:40:57;8.80;99.90
20722;DHT22;10522;52.198;9.890;2024-03-06T12:43:23;8.80;99.90
20722;DHT22;10522;52.198;9.890;2024-03-06T12:45:49;8.80;99.90
20722;DHT22;10522;52.198;9.890;2024-03-06T12:48:15;8.70;99.90
20722;DHT22;10522;52.198;9.890;2024-03-06T12:50:40;8.80;99.90
20722;DHT22;10522;52.198;9.890;2024-03-06T12:53:07;8.90;99.90
20722;DHT22;10522;52.198;9.890;2024-03-06T12:55:34;9.00;99.90
20722;DHT22;10522;52.198;9.890;2024-03-06T12:58:01;9.20;99.90
20722;DHT22;10522;52.198;9.890;2024-03-06T13:00:27;9.20;99.90
20722;DHT22;10522;52.198;9.890;2024-03-06T13:02:53;9.20;99.90
20722;DHT22;10522;52.198;9.890;2024-03-06T13:05:19;9.30;99.90
20722;DHT22;10522;52.198;9.890;2024-03-06T13:07:45;9.30;99.90
20722;DHT22;10522;52.198;9.890;2024-03-06T13:10:12;9.30;99.90
20722;DHT22;10522;52.198;9.890;2024-03-06T13:12:38;9.20;99.90
20722;DHT22;10522;52.198;9.890;2024-03-06T13:15:04;9.20;99.90
20722;DHT22;10522;52.198;9.890;2024-03-06T13:17:30;9.30;99.90
20722;DHT22;10522;52.198;9.890;2024-03-06T13:19:56;9.20;99.90
20722;DHT22;10522;52.198;9.890;2024-03-06T13:22:22;9.20;99.90
20722;DHT22;10522;52.198;9.890;2024-03-06T13:24:48;9.20;99.90
20722;DHT22;10522;52.198;9.890;2024-03-06T13:27:14;9.30;99.90
20722;DHT22;10522;52.198;9.890;2024-03-06T13:29:39;9.10;99.90
20722;DHT22;10522;52.198;9.890;2024-03-06T13:32:06;9.20;99.90
20722;DHT22;10522;52.198;9.890;2024-03-06T13:34:32;9.30;99.90
20722;DHT22;10522;52.198;9.890;2024-03-06T13:36:59;9.20;99.90
20722;DHT22;10522;52.198;9.890;2024-03-06T13:39:24;9.00;99.90
20722;DHT22;10522;52.198;9.890;2024-03-06T13:41:50;8.80;99.90
20722;DHT22;10522;52.198;9.890;2024-03-06T13:44:18;8.80;99.90
20722;DHT22;10522;52.198;9.890;2024-03-06T13:46:43;8.70;99.90
20722;DHT22;10522;52.198;9.890;2024-03-06T13:49:39;8.60;99.90
20722;DHT22;10522;52.198;9.890;2024-03-06T13:52:06;8.60;99.90
20722;DHT22;10522;52.198;9.890;2024-03-06T13:54:37;8.60;99.90
20722;DHT22;10522;52.198;9.890;2024-03-06T13:57:03;8.80;99.90
20722;DHT22;10522;52.198;9.890;2024-03-06T13:59:32;8.70;99.90
20722;DHT22;10522;52.198;9.890;2024-03-06T14:02:01;8.60;99.90
20722;DHT22;10522;52.198;9.890;2024-03-06T14:04:28;8.70;99.90
20722;DHT22;10522;52.198;9.890;2024-03-06T14:06:54;8.80;99.90
20722;DHT22;10522;52.198;9.890;2024-03-06T14:09:20;8.90;99.90
20722;DHT22;10522;52.198;9.890;2024-03-06T14:11:49;8.90;99.90
20722;DHT22;10522;52.198;9.890;2024-03-06T14:14:16;8.90;99.90
20722;DHT22;10522;52.198;9.890;2024-03-06T14:16:42;9.10;99.90
20722;DHT22;10522;52.198;9.890;2024-03-06T14:19:08;9.10;99.90
20722;DHT22;10522;52.198;9.890;2024-03-06T14:21:34;9.20;99.90
20722;DHT22;10522;52.198;9.890;2024-03-06T14:24:00;9.20;99.90
20722;DHT22;10522;52.198;9.890;2024-03-06T14:26:29;9.30;99.90
20722;DHT22;10522;52.198;9.890;2024-03-06T14:28:55;9.30;99.90
20722;DHT22;10522;52.198;9.890;2024-03-06T14:31:21;9.50;99.90
20722;DHT22;10522;52.198;9.890;2024-03-06T14:33:46;9.60;99.90
20722;DHT22;10522;52.198;9.890;2024-03-06T14:36:14;9.50;99.90
20722;DHT22;10522;52.198;9.890;2024-03-06T14:38:40;9.50;99.90
20722;DHT22;10522;52.198;9.890;2024-03-06T14:41:05;9.40;99.90
20722;DHT22;10522;52.198;9.890;2024-03-06T14:43:32;9.30;99.90
20722;DHT22;10522;52.198;9.890;2024-03-06T14:46:04;9.20;99.90
20722;DHT22;10522;52.198;9.890;2024-03-06T14:48:30;9.20;99.90
20722;DHT22;10522;52.198;9.890;2024-03-06T14:50:55;9.30;99.90
20722;DHT22;10522;52.198;9.890;2024-03-06T14:53:21;9.50;99.90
20722;DHT22;10522;52.198;9.890;2024-03-06T14:55:47;9.30;99.90
20722;DHT22;10522;52.198;9.890;2024-03-06T14:58:13;9.40;99.90
20722;DHT22;10522;52.198;9.890;2024-03-06T15:00:39;9.40;99.90
20722;DHT22;10522;52.198;9.890;2024-03-06T15:03:04;9.30;99.90
20722;DHT22;10522;52.198;9.890;2024-03-06T15:05:30;9.50;99.90
20722;DHT22;10522;52.198;9.890;2024-03-06T15:07:57;9.40;99.90
20722;DHT22;10522;52.198;9.890;2024-03-06T15:10:23;9.40;99.90
20722;DHT22;10522;52.198;9.890;2024-03-06T15:12:49;9.30;99.90
20722;DHT22;10522;52.198;9.890;2024-03-06T15:15:15;9.40;99.90
20722;DHT22;10522;52.198;9.890;2024-03-06T15:17:40;9.50;99.90
20722;DHT22;10522;52.198;9.890;2024-03-06T15:20:07;9.80;99.90
20722;DHT22;10522;52.198;9.890;2024-03-06T15:22:36;9.80;99.90
20722;DHT22;10522;52.198;9.890;2024-03-06T15:25:11;9.80;99.90
20722;DHT22;10522;52.198;9.890;2024-03-06T15:27:37;9.90;99.90
20722;DHT22;10522;52.198;9.890;2024-03-06T15:30:08;10.00;99.90
20722;DHT22;10522;52.198;9.890;2024-03-06T15:32:34;9.90;99.90
20722;DHT22;10522;52.198;9.890;2024-03-06T15:35:01;9.80;99.90
20722;DHT22;10522;52.198;9.890;2024-03-06T15:37:29;9.70;99.90
20722;DHT22;10522;52.198;9.890;2024-03-06T15:39:55;9.70;99.90
20722;DHT22;10522;52.198;9.890;2024-03-06T15:42:22;9.70;99.90
20722;DHT22;10522;52.198;9.890;2024-03-06T15:44:48;9.60;99.90
20722;DHT22;10522;52.198;9.890;2024-03-06T15:47:14;9.30;99.90
20722;DHT22;10522;52.198;9.890;2024-03-06T15:49:41;9.20;99.90
20722;DHT22;10522;52.198;9.890;2024-03-06T15:52:06;9.20;99.90
20722;DHT22;10522;52.198;9.890;2024-03-06T15:54:33;9.00;99.90
20722;DHT22;10522;52.198;9.890;2024-03-06T15:56:58;8.90;99.90
20722;DHT22;10522;52.198;9.890;2024-03-06T15:59:24;8.80;99.90
20722;DHT22;10522;52.198;9.890;2024-03-06T16:01:50;8.70;99.90
20722;DHT22;10522;52.198;9.890;2024-03-06T16:04:16;8.50;99.90
20722;DHT22;10522;52.198;9.890;2024-03-06T16:06:43;8.60;99.90
20722;DHT22;10522;52.198;9.890;2024-03-06T16:09:09;8.30;99.90